Time;durP1;ratioP1;P1;durP2;ratioP2;P2;SDS_P1;SDS_P2;PMS_P1;PMS_P2;Temp;Humidity;BMP_temperature;BMP_pressure;BME280_temperature;BME280_humidity;BME280_pressure;Samples;Min_cycle;Max_cycle;Signal;HPM_P1;HPM_P2
2021/10/15 00:02:39;;;;;;;13.80;10.30;;;;;;;8.80;76.97;100126.62;111922;1206;109406;-75
2021/10/15 00:06:45;;;;;;;13.60;10.00;;;;;;;8.85;77.00;100127.17;111231;1215;136803;-79
2021/10/15 00:14:24;;;;;;;;;;;;;;;;;;;;;
2021/10/15 00:18:13;;;;;;;11.90;8.10;;;;;;;8.91;77.03;100119.91;111416;1212;635848;-78
2021/10/15 00:26:41;;;;;;;;;;;;;;;;;;;;;
2021/10/15 00:30:33;;;;;;;13.10;9.10;;;;;;;8.94;77.39;100109.92;111262;1212;136650;-76
2021/10/15 00:47:22;;;;;;;8.20;6.30;;;;;;;8.85;78.15;100099.27;110496;1222;137620;-75
2021/10/15 00:51:28;;;;;;;7.80;6.10;;;;;;;8.78;78.12;100099.79;110151;1226;107964;-75
2021/10/15 00:55:33;;;;;;;9.00;7.40;;;;;;;8.78;78.64;100098.57;109759;1231;136778;-75
2021/10/15 01:03:04;;;;;;;;;;;;;;;;;;;;;
2021/10/15 01:11:42;;;;;;;9.80;7.70;;;;;;;8.91;78.70;100082.45;111958;1223;137544;-75
2021/10/15 01:27:43;;;;;;;9.50;7.70;;;;;;;8.85;79.36;100067.55;112230;1221;93243;-76
2021/10/15 01:31:08;;;;;;;;;;;;;;;;;;;;;
2021/10/15 01:34:52;;;;;;;;;;;;;;;;;;;;;
2021/10/15 01:47:15;;;;;;;14.40;10.40;;;;;;;8.93;80.15;100056.19;112351;1221;93439;-77
2021/10/15 01:59:32;;;;;;;18.40;13.10;;;;;;;9.07;79.72;100052.67;110689;1223;109546;-76
2021/10/15 02:03:24;;;;;;;;;;;;;;;;;;;;;
2021/10/15 02:15:55;;;;;;;19.80;13.30;;;;;;;9.22;79.59;100042.02;110507;1225;108103;-77
2021/10/15 02:20:04;;;;;;;18.00;13.30;;;;;;;9.24;79.51;100041.23;111670;1205;635003;-78
2021/10/15 02:24:12;;;;;;;19.40;12.70;;;;;;;9.22;79.47;100032.84;113645;1205;92802;-78
2021/10/15 02:28:12;;;;;;;21.20;14.00;;;;;;;9.24;79.80;100031.55;113267;1208;93629;-79
2021/10/15 02:40:13;;;;;;;26.20;16.50;;;;;;;9.28;79.94;100032.45;113820;1202;93573;-78
2021/10/15 02:44:18;;;;;;;22.50;15.60;;;;;;;9.25;79.77;100028.38;113343;1206;137462;-78
2021/10/15 02:48:28;;;;;;;23.00;15.20;;;;;;;9.26;80.09;100021.06;113428;1207;108732;-75
2021/10/15 02:52:35;;;;;;;28.30;18.90;;;;;;;9.28;80.55;100019.10;113259;1211;108551;-79
2021/10/15 03:00:57;;;;;;;;;;;;;;;;;;;;;
2021/10/15 03:05:02;;;;;;;;;;;;;;;;;;;;;
2021/10/15 03:17:17;;;;;;;28.00;18.70;;;;;;;9.32;80.60;100014.97;110524;1223;137316;-78
2021/10/15 03:20:36;;;;;;;;;;;;;;;;;;;;;
2021/10/15 03:28:40;;;;;;;;;;;;;;;;;;;;;
2021/10/15 03:40:36;;;;;;;31.00;20.50;;;;;;;9.47;80.86;100004.96;111817;1209;635775;-76
2021/10/15 03:44:44;;;;;;;27.30;19.10;;;;;;;9.44;80.83;99999.88;114281;1198;93537;-76
2021/10/15 03:48:50;;;;;;;;;;;;;;;;;;;;;
2021/10/15 03:53:17;;;;;;;31.10;20.70;;;;;;;9.50;81.00;99999.14;113138;1208;136477;-76
2021/10/15 03:57:36;;;;;;;27.20;18.10;;;;;;;9.52;80.93;99999.98;113002;1216;109484;-76
2021/10/15 04:01:43;;;;;;;27.20;19.40;;;;;;;9.53;80.82;100000.64;111253;1219;109737;-75
2021/10/15 04:13:47;;;;;;;;;;;;;;;;;;;;;
2021/10/15 04:17:57;;;;;;;25.60;17.40;;;;;;;9.62;80.77;100001.38;112394;1201;137365;-76
2021/10/15 04:22:05;;;;;;;24.40;17.10;;;;;;;9.60;80.66;100001.08;112310;1205;94755;-77
2021/10/15 04:26:13;;;;;;;25.70;18.90;;;;;;;9.61;80.75;99998.95;111762;1209;108457;-76
2021/10/15 04:30:25;;;;;;;24.00;17.30;;;;;;;9.58;80.86;99993.00;111497;1209;137552;-77
2021/10/15 04:34:58;;;;;;;22.80;17.00;;;;;;;9.60;80.70;99998.50;111556;1213;108816;-76
2021/10/15 04:39:10;;;;;;;24.00;17.00;;;;;;;9.64;80.82;99990.38;111408;1209;635871;-75
2021/10/15 04:47:20;;;;;;;21.90;16.70;;;;;;;9.65;80.74;99982.85;111919;1207;137278;-78
2021/10/15 04:59:56;;;;;;;21.60;16.30;;;;;;;9.72;80.49;99978.33;112762;1217;137497;-76
2021/10/15 05:03:32;;;;;;;24.40;16.40;;;;;;;9.73;80.50;99983.84;112645;1218;93038;-77
2021/10/15 05:07:28;;;;;;;;;;;;;;;;;;;;;
2021/10/15 05:11:17;;;;;;;24.40;17.10;;;;;;;9.76;80.45;99982.35;111551;1225;137600;-77
2021/10/15 05:19:04;;;;;;;23.20;15.50;;;;;;;9.86;80.38;99973.31;111381;1209;636065;-77
2021/10/15 05:23:13;;;;;;;21.50;17.10;;;;;;;9.89;80.23;99976.18;112583;1199;94185;-77
2021/10/15 05:27:03;;;;;;;20.70;15.90;;;;;;;9.92;80.10;99975.40;113505;1201;93838;-77
2021/10/15 05:31:02;;;;;;;;;;;;;;;;;;;;;
2021/10/15 05:35:05;;;;;;;25.80;18.90;;;;;;;9.94;80.16;99975.51;113609;1204;108833;-78
2021/10/15 05:39:07;;;;;;;23.30;17.30;;;;;;;9.93;80.17;99975.52;113403;1209;108629;-78
2021/10/15 05:43:35;;;;;;;;;;;;;;;;;;;;;
2021/10/15 05:47:45;;;;;;;23.60;16.90;;;;;;;9.97;79.95;99971.20;112638;1199;94172;-77
2021/10/15 05:51:37;;;;;;;21.80;16.50;;;;;;;9.99;79.94;99966.95;113486;1200;93756;-78
2021/10/15 06:03:11;;;;;;;22.00;16.50;;;;;;;10.03;80.03;99966.13;113444;1205;138021;-77
2021/10/15 06:14:45;;;;;;;22.90;17.30;;;;;;;10.17;79.74;99968.61;113156;1207;139056;-76
2021/10/15 06:18:56;;;;;;;;;;;;;;;;;;;;;
2021/10/15 06:23:01;;;;;;;24.70;18.60;;;;;;;10.28;79.35;99971.19;113268;1210;108801;-77
2021/10/15 06:27:02;;;;;;;;;;;;;;;;;;;;;
2021/10/15 06:35:42;;;;;;;21.90;17.30;;;;;;;10.38;78.96;99977.61;113107;1212;109511;-79
2021/10/15 06:39:04;;;;;;;;;;;;;;;;;;;;;
2021/10/15 06:43:24;;;;;;;25.70;17.70;;;;;;;10.46;78.57;99979.80;111679;1219;138004;-77
2021/10/15 06:46:57;;;;;;;;;;;;;;;;;;;;;
2021/10/15 06:55:34;;;;;;;22.80;17.10;;;;;;;10.57;78.19;99976.40;110665;1222;138148;-77
2021/10/15 06:59:39;;;;;;;23.70;18.00;;;;;;;10.61;78.19;99973.33;111630;1225;110458;-78
2021/10/15 07:03:44;;;;;;;22.20;16.10;;;;;;;10.66;78.07;99977.34;111532;1224;137844;-78
2021/10/15 07:07:24;;;;;;;;;;;;;;;;;;;;;
2021/10/15 07:11:38;;;;;;;22.90;17.60;;;;;;;10.80;77.51;99976.13;113440;1198;93957;-80
2021/10/15 07:19:42;;;;;;;;;;;;;;;;;;;;;
2021/10/15 07:23:52;;;;;;;;;;;;;;;;;;;;;
2021/10/15 07:27:40;;;;;;;22.20;15.10;;;;;;;11.01;76.78;99981.95;113526;1204;137148;-79
2021/10/15 07:31:49;;;;;;;24.40;17.10;;;;;;;11.08;76.62;99981.98;113278;1206;138759;-78
2021/10/15 07:35:50;;;;;;;23.10;17.30;;;;;;;11.12;76.39;99992.11;113519;1206;95771;-78
2021/10/15 07:39:54;;;;;;;;;;;;;;;;;;;;;
2021/10/15 07:44:15;;;;;;;;;;;;;;;;;;;;;
2021/10/15 07:56:27;;;;;;;21.00;16.20;;;;;;;11.30;75.61;99991.77;113020;1212;137556;-78
2021/10/15 08:00:28;;;;;;;;;;;;;;;;;;;;;
2021/10/15 08:04:38;;;;;;;15.80;13.50;;;;;;;11.43;74.93;99982.87;112382;1202;137106;-80
2021/10/15 08:08:31;;;;;;;;;;;;;;;;;;;;;
2021/10/15 08:16:29;;;;;;;17.00;12.90;;;;;;;11.60;74.31;99980.64;113241;1208;137239;-80
2021/10/15 08:23:54;;;;;;;16.60;12.10;;;;;;;11.81;73.95;99970.74;111096;1216;94236;-80
2021/10/15 08:28:05;;;;;;;16.90;12.50;;;;;;;11.89;73.52;99980.86;110996;1220;137123;-80
2021/10/15 08:31:38;;;;;;;;;;;;;;;;;;;;;
2021/10/15 08:39:54;;;;;;;;;;;;;;;;;;;;;
2021/10/15 08:43:48;;;;;;;;;;;;;;;;;;;;;
2021/10/15 08:52:06;;;;;;;;;;;;;;;;;;;;;
2021/10/15 08:56:41;;;;;;;;;;;;;;;;;;;;;
2021/10/15 09:08:44;;;;;;;;;;;;;;;;;;;;;
2021/10/15 09:16:35;;;;;;;15.60;11.70;;;;;;;14.30;67.00;99942.84;111402;1209;636133;-75
2021/10/15 09:20:42;;;;;;;;;;;;;;;;;;;;;
2021/10/15 09:24:50;;;;;;;14.40;9.80;;;;;;;14.36;65.88;99951.77;113911;1200;136560;-79
2021/10/15 09:28:51;;;;;;;;;;;;;;;;;;;;;
2021/10/15 09:36:40;;;;;;;13.20;9.80;;;;;;;14.39;64.64;99931.88;113006;1206;137197;-79
2021/10/15 09:40:48;;;;;;;13.60;10.20;;;;;;;14.54;64.52;99926.55;113370;1206;137535;-79
2021/10/15 09:44:37;;;;;;;12.30;9.30;;;;;;;14.80;64.62;99926.36;113590;1205;92905;-79
2021/10/15 09:48:32;;;;;;;;;;;;;;;;;;;;;
2021/10/15 09:57:12;;;;;;;11.50;8.90;;;;;;;15.76;60.70;99918.11;111320;1217;109747;-79
2021/10/15 10:00:42;;;;;;;;;;;;;;;;;;;;;
2021/10/15 10:04:27;;;;;;;;;;;;;;;;;;;;;
2021/10/15 10:12:55;;;;;;;10.30;8.30;;;;;;;16.02;57.89;99917.44;111265;1216;137239;-80
2021/10/15 10:17:00;;;;;;;12.70;9.60;;;;;;;15.89;58.78;99908.42;111366;1216;109366;-80
2021/10/15 10:28:30;;;;;;;13.90;10.40;;;;;;;16.30;57.70;99893.64;110915;1219;110726;-80
2021/10/15 10:32:52;;;;;;;;;;;;;;;;;;;;;
2021/10/15 10:37:20;;;;;;;14.90;10.00;;;;;;;16.89;56.57;99879.24;110766;1221;137558;-82
2021/10/15 10:41:30;;;;;;;17.10;9.80;;;;;;;17.49;56.94;99874.77;111296;1221;95011;-84
2021/10/15 10:45:21;;;;;;;;;;;;;;;;;;;;;
2021/10/15 10:49:47;;;;;;;;;;;;;;;;;;;;;
2021/10/15 10:54:01;;;;;;;;;;;;;;;17.59;54.04;99882.94;112883;1196;94081;-81
2021/10/15 10:57:54;;;;;;;10.00;8.50;;;;;;;17.28;54.00;99891.63;112945;1196;94124;-80
2021/10/15 11:02:07;;;;;;;11.40;9.30;;;;;;;16.59;53.90;99879.59;112371;1200;137351;-82
2021/10/15 11:06:17;;;;;;;12.00;9.30;;;;;;;16.15;55.80;99883.16;112106;1203;109491;-81
2021/10/15 11:10:39;;;;;;;;;;;;;;;;;;;;;
2021/10/15 11:13:41;;;;;;;11.60;8.90;;;;;;;15.77;56.20;99873.89;112009;1203;136980;-79
2021/10/15 11:17:31;;;;;;;12.50;10.20;;;;;;;15.67;56.33;99871.64;112168;1206;94120;-80
2021/10/15 11:25:55;;;;;;;10.90;8.70;;;;;;;15.37;56.88;99857.12;111717;1206;136881;-79
2021/10/15 11:29:58;;;;;;;13.50;10.50;;;;;;;15.33;56.47;99856.12;111660;1209;108675;-78
2021/10/15 11:34:13;;;;;;;12.70;10.10;;;;;;;15.34;57.38;99842.91;111628;1209;137080;-79
2021/10/15 11:42:03;;;;;;;13.50;10.30;;;;;;;15.82;56.68;99833.48;111490;1213;111217;-81
2021/10/15 11:46:27;;;;;;;14.10;10.30;;;;;;;15.86;56.20;99819.91;111423;1212;137234;-81
2021/10/15 11:51:01;;;;;;;12.80;10.40;;;;;;;15.99;56.36;99822.93;111575;1212;137837;-80
2021/10/15 11:54:24;;;;;;;10.70;9.60;;;;;;;16.14;55.88;99819.73;111354;1216;96539;-82
2021/10/15 11:58:55;;;;;;;11.40;9.30;;;;;;;16.02;54.12;99829.77;111366;1215;136784;-80
2021/10/15 12:02:36;;;;;;;11.30;9.60;;;;;;;15.77;54.72;99818.66;111185;1216;137346;-81
2021/10/15 12:11:20;;;;;;;11.50;9.70;;;;;;;15.55;54.45;99807.54;112412;1219;137906;-82
2021/10/15 12:14:53;;;;;;;;;;;;;;;;;;;;;
2021/10/15 12:19:33;;;;;;;12.20;9.20;;;;;;;15.39;55.15;99804.41;112181;1222;94154;-81
2021/10/15 12:23:04;;;;;;;;;;;;;;;;;;;;;
2021/10/15 12:26:57;;;;;;;9.00;7.80;;;;;;;15.78;54.59;99790.95;111535;1208;635778;-80
2021/10/15 12:30:50;;;;;;;9.80;8.20;;;;;;;15.72;53.78;99793.37;112326;1202;94586;-78
2021/10/15 12:39:04;;;;;;;10.30;9.10;;;;;;;15.80;54.03;99793.60;112313;1201;136682;-78
2021/10/15 12:43:10;;;;;;;10.70;7.90;;;;;;;15.68;52.63;99792.58;112493;1201;109034;-77
2021/10/15 12:51:49;;;;;;;9.70;7.60;;;;;;;15.17;53.25;99792.45;111558;1211;136887;-78
2021/10/15 12:55:54;;;;;;;10.10;8.80;;;;;;;14.85;53.62;99788.65;111530;1212;94145;-80
2021/10/15 12:59:59;;;;;;;9.70;7.10;;;;;;;14.68;54.50;99776.53;111441;1212;135603;-81
2021/10/15 13:03:41;;;;;;;;;;;;;;;;;;;;;
2021/10/15 13:07:32;;;;;;;;;;;;;;;;;;;;;
2021/10/15 13:15:27;;;;;;;12.90;9.80;;;;;;;14.40;56.28;99777.38;111633;1209;636256;-81
2021/10/15 13:19:25;;;;;;;;;;;;;;;;;;;;;
2021/10/15 13:23:25;;;;;;;16.20;8.70;;;;;;;14.20;57.21;99772.52;114136;1196;136552;-83
2021/10/15 13:27:33;;;;;;;13.10;9.60;;;;;;;14.08;57.56;99767.05;114214;1196;136684;-82
2021/10/15 13:31:41;;;;;;;12.40;9.60;;;;;;;14.05;58.00;99761.43;114151;1200;107564;-83
2021/10/15 13:35:45;;;;;;;11.50;9.00;;;;;;;14.03;58.07;99758.73;113649;1203;136873;-83
2021/10/15 13:39:49;;;;;;;13.10;9.60;;;;;;;14.00;58.19;99764.16;113697;1203;137151;-83
2021/10/15 14:08:13;;;;;;;10.70;9.10;;;;;;;13.63;59.18;99752.64;111374;1209;636604;-83
2021/10/15 14:12:22;;;;;;;10.90;8.80;;;;;;;13.54;59.31;99752.11;112442;1199;94096;-83
2021/10/15 14:16:31;;;;;;;10.50;8.50;;;;;;;13.50;59.39;99746.05;112043;1202;136471;-83
2021/10/15 14:20:39;;;;;;;10.70;8.50;;;;;;;13.44;59.52;99753.64;112092;1204;107233;-83
2021/10/15 14:24:47;;;;;;;11.20;9.50;;;;;;;13.39;59.71;99752.17;111650;1208;137356;-82
2021/10/15 14:28:59;;;;;;;;;;;;;;;;;;;;;
2021/10/15 14:32:52;;;;;;;;;;;;;;;;;;;;;
2021/10/15 14:37:38;;;;;;;10.10;8.30;;;;;;;13.25;59.90;99757.77;110944;1215;94387;-82
2021/10/15 14:41:45;;;;;;;9.50;8.20;;;;;;;13.22;60.09;99751.64;110538;1219;137243;-82
2021/10/15 14:49:23;;;;;;;;;;;;;;;;;;;;;
2021/10/15 14:53:54;;;;;;;12.90;7.90;;;;;;;13.17;60.26;99751.19;110262;1222;136292;-82
2021/10/15 14:58:28;;;;;;;11.10;7.90;;;;;;;13.17;60.20;99742.29;111450;1208;638238;-82
2021/10/15 15:06:20;;;;;;;8.80;7.90;;;;;;;13.09;60.39;99745.13;111979;1203;136486;-81
2021/10/15 15:23:09;;;;;;;9.20;7.70;;;;;;;13.00;60.68;99743.31;110475;1222;94501;-82
2021/10/15 15:41:13;;;;;;;15.10;8.90;;;;;;;13.19;60.11;99741.70;111443;1209;648509;-80
2021/10/15 15:44:49;;;;;;;10.60;8.30;;;;;;;13.12;60.07;99750.73;112381;1200;136535;-81
2021/10/15 15:53:43;;;;;;;10.40;8.40;;;;;;;12.94;60.54;99759.48;111637;1206;635945;-85
2021/10/15 16:02:00;;;;;;;10.80;8.60;;;;;;;12.81;61.01;99772.03;112269;1202;137052;-83
2021/10/15 16:06:08;;;;;;;13.60;8.90;;;;;;;12.73;61.15;99762.27;111997;1206;108329;-81
2021/10/15 16:26:32;;;;;;;10.40;8.30;;;;;;;12.59;61.65;99758.58;111489;1209;636350;-83
2021/10/15 16:30:58;;;;;;;10.80;9.00;;;;;;;12.53;61.83;99770.05;112323;1202;94366;-87
2021/10/15 16:38:41;;;;;;;;;;;;;;;;;;;;;
2021/10/15 16:43:18;;;;;;;13.30;10.20;;;;;;;12.44;62.55;99743.29;111556;1209;636971;-84
2021/10/15 16:47:26;;;;;;;12.40;9.70;;;;;;;12.32;62.79;99755.33;114016;1201;92729;-84
2021/10/15 16:51:26;;;;;;;13.50;9.30;;;;;;;12.26;62.81;99759.13;112813;1203;136890;-83
2021/10/15 16:56:14;;;;;;;9.80;8.40;;;;;;;12.22;62.75;99754.42;111697;1211;109080;-86
2021/10/15 17:08:35;;;;;;;9.70;8.40;;;;;;;12.14;62.67;99750.80;111889;1202;636013;-83
2021/10/15 17:16:52;;;;;;;10.30;9.10;;;;;;;12.06;62.87;99762.33;111918;1205;136934;-83
2021/10/15 17:37:50;;;;;;;10.20;8.90;;;;;;;11.82;63.49;99747.21;111419;1209;644223;-83
2021/10/15 17:41:34;;;;;;;10.80;8.70;;;;;;;11.71;63.90;99745.26;112334;1199;136988;-83
2021/10/15 17:58:10;;;;;;;;;;;;;;;;;;;;;
2021/10/15 18:02:30;;;;;;;12.10;9.30;;;;;;;11.52;64.84;99728.33;111453;1214;137649;-82
2021/10/15 18:06:36;;;;;;;12.50;9.40;;;;;;;11.53;64.75;99724.13;110996;1218;137781;-83
2021/10/15 18:10:42;;;;;;;12.10;9.50;;;;;;;11.54;64.95;99726.84;110744;1220;109157;-82
2021/10/15 18:14:40;;;;;;;10.90;8.80;;;;;;;11.54;64.96;99721.80;111407;1209;635956;-83
2021/10/15 18:18:48;;;;;;;11.80;9.20;;;;;;;11.49;65.24;99715.05;112429;1200;137461;-81
2021/10/15 18:22:56;;;;;;;;;;;;;;;;;;;;;
2021/10/15 18:27:03;;;;;;;;;;;;;;;;;;;;;
2021/10/15 18:31:14;;;;;;;12.50;8.90;;;;;;;11.40;65.59;99710.74;111832;1208;137492;-81
2021/10/15 18:43:59;;;;;;;12.00;9.30;;;;;;;11.31;66.15;99721.92;111108;1217;137075;-82
2021/10/15 19:01:57;;;;;;;11.10;9.80;;;;;;;11.65;65.85;99716.44;111474;1212;650091;-85
2021/10/15 19:06:06;;;;;;;12.40;8.90;;;;;;;11.61;65.98;99709.83;112177;1206;94228;-85
2021/10/15 19:10:41;;;;;;;15.60;9.40;;;;;;;11.52;66.24;99709.19;111683;1212;137501;-85
2021/10/15 19:14:07;;;;;;;;;;;;;;;;;;;;;
2021/10/15 19:18:38;;;;;;;11.70;9.60;;;;;;;11.41;66.51;99705.11;111345;1218;109561;-84
2021/10/15 19:30:10;;;;;;;12.30;9.40;;;;;;;11.33;66.97;99705.15;111311;1212;656495;-84
2021/10/15 19:34:29;;;;;;;;;;;;;;;;;;;;;
2021/10/15 19:42:26;;;;;;;;;;;;;;;;;;;;;
2021/10/15 19:47:13;;;;;;;16.50;9.50;;;;;;;11.30;67.54;99703.33;111504;1212;138056;-85
2021/10/15 19:51:09;;;;;;;13.20;9.50;;;;;;;11.34;67.65;99700.60;111068;1220;109615;-86
2021/10/15 19:59:21;;;;;;;14.50;9.80;;;;;;;11.40;67.80;99695.95;111644;1205;638768;-83
2021/10/15 20:03:28;;;;;;;14.90;9.90;;;;;;;11.41;67.58;99702.15;112303;1202;94295;-83
2021/10/15 20:07:37;;;;;;;11.70;9.30;;;;;;;11.46;67.87;99697.27;111829;1209;94149;-83
2021/10/15 20:20:09;;;;;;;;;;;;;;;;;;;;;
2021/10/15 20:24:03;;;;;;;;;;;;;;;;;;;;;
2021/10/15 20:32:29;;;;;;;15.90;11.20;;;;;;;11.75;68.73;99732.89;111426;1210;638502;-83
2021/10/15 20:36:12;;;;;;;13.40;10.70;;;;;;;11.69;68.96;99736.96;112419;1201;137685;-83
2021/10/15 20:40:20;;;;;;;15.50;11.70;;;;;;;11.63;69.21;99744.90;112775;1196;95515;-83
2021/10/15 20:44:29;;;;;;;12.60;10.30;;;;;;;11.54;69.59;99748.29;112462;1200;107461;-84
2021/10/15 21:15:11;;;;;;;8.10;6.50;;;;;;;11.71;69.47;99800.59;111669;1206;648363;-81
2021/10/15 21:19:19;;;;;;;7.40;5.80;;;;;;;11.70;69.50;99809.91;112508;1199;136656;-81
2021/10/15 21:23:27;;;;;;;9.30;6.10;;;;;;;11.60;69.69;99815.23;112141;1206;94109;-81
2021/10/15 21:36:28;;;;;;;5.80;4.70;;;;;;;11.19;70.37;99844.42;111115;1220;108376;-81
2021/10/15 21:40:36;;;;;;;6.80;4.30;;;;;;;11.13;70.60;99860.70;111381;1209;637488;-83
2021/10/15 21:44:44;;;;;;;5.70;3.50;;;;;;;11.01;70.55;99869.00;112133;1202;136959;-81
2021/10/15 21:52:47;;;;;;;3.20;2.90;;;;;;;10.74;69.98;99873.02;111911;1206;638588;-83
2021/10/15 21:56:56;;;;;;;3.10;2.50;;;;;;;10.56;69.87;99866.77;112184;1206;136536;-83
2021/10/15 22:01:05;;;;;;;3.00;2.50;;;;;;;10.47;69.63;99857.22;112306;1204;94163;-81
